Main page
METAR-TAF:

METAR-TAF

Airports :

Llano Municipal Airport

Llano, Texas, United States

latitude: 30-47-01N, longitude: 098-39-43W, elevation: 1102 ft

Current weather observation

The report was made 10 minutes ago, at 13:15 UTC
Wind 10 mph from the East/Northeast
Temperature 77°F
Humidity 89%
Pressure 30.11 in. Hg
Visibility: 5 miles
Few clouds at a height of 1500 ft
Few clouds at a height of 2700 ft
Scattered clouds at a height of 3900 ft
mist

METAR: KAQO 201315Z AUTO 06009KT 5SM BR FEW015 FEW027 SCT039 25/23 A3011 RMK AO2

Time: 08:25 (13:25 UTC)


TAF: missing

Weather observations and forecasts of more than 4000 airports (METAR and TAF reports).

The available stations are represented by yellow and red dots on the map.

Hover mouse over dot to see the name of the station.

Then click to see weather observations and forecasts.

To change the map : click on the green buttons with a black cross to zoom in, on the green button with a dash to zoom out, or on the green arrows for adjacent maps.


METAR-TAF: